sensor_id;sensor_type;location;lat;lon;timestamp;temperature;humidity
54642;DHT22;40536;53.194;5.728;2023-09-19T00:00:46;14.40;99.90
54642;DHT22;40536;53.194;5.728;2023-09-19T00:03:12;14.40;99.90
54642;DHT22;40536;53.194;5.728;2023-09-19T00:05:39;14.50;99.90
54642;DHT22;40536;53.194;5.728;2023-09-19T00:08:05;14.50;99.90
54642;DHT22;40536;53.194;5.728;2023-09-19T00:10:32;14.50;99.90
54642;DHT22;40536;53.194;5.728;2023-09-19T00:13:02;14.50;99.90
54642;DHT22;40536;53.194;5.728;2023-09-19T00:15:44;14.20;99.90
54642;DHT22;40536;53.194;5.728;2023-09-19T00:18:21;14.00;99.90
54642;DHT22;40536;53.194;5.728;2023-09-19T00:20:47;13.90;99.90
54642;DHT22;40536;53.194;5.728;2023-09-19T00:23:14;13.80;99.90
54642;DHT22;40536;53.194;5.728;2023-09-19T00:25:40;13.80;99.90
54642;DHT22;40536;53.194;5.728;2023-09-19T00:28:07;13.80;99.90
54642;DHT22;40536;53.194;5.728;2023-09-19T00:30:34;13.70;99.90
54642;DHT22;40536;53.194;5.728;2023-09-19T00:33:00;13.70;99.90
54642;DHT22;40536;53.194;5.728;2023-09-19T00:35:27;13.60;99.90
54642;DHT22;40536;53.194;5.728;2023-09-19T00:37:56;13.60;99.90
54642;DHT22;40536;53.194;5.728;2023-09-19T00:40:21;13.60;99.90
54642;DHT22;40536;53.194;5.728;2023-09-19T00:42:48;13.50;99.90
54642;DHT22;40536;53.194;5.728;2023-09-19T00:45:16;13.50;99.90
54642;DHT22;40536;53.194;5.728;2023-09-19T00:47:46;13.50;99.90
54642;DHT22;40536;53.194;5.728;2023-09-19T00:50:16;13.50;99.90
54642;DHT22;40536;53.194;5.728;2023-09-19T00:52:43;13.40;99.90
54642;DHT22;40536;53.194;5.728;2023-09-19T00:55:10;13.50;99.90
54642;DHT22;40536;53.194;5.728;2023-09-19T00:57:38;13.40;99.90
54642;DHT22;40536;53.194;5.728;2023-09-19T01:00:05;13.50;99.90
54642;DHT22;40536;53.194;5.728;2023-09-19T01:02:33;13.40;99.90
54642;DHT22;40536;53.194;5.728;2023-09-19T01:04:59;13.40;99.90
54642;DHT22;40536;53.194;5.728;2023-09-19T01:07:26;13.40;99.90
54642;DHT22;40536;53.194;5.728;2023-09-19T01:09:56;13.40;99.90
54642;DHT22;40536;53.194;5.728;2023-09-19T01:20:39;13.30;99.90
54642;DHT22;40536;53.194;5.728;2023-09-19T01:23:28;13.40;99.90
54642;DHT22;40536;53.194;5.728;2023-09-19T01:26:27;13.40;99.90
54642;DHT22;40536;53.194;5.728;2023-09-19T01:31:23;13.40;99.90
54642;DHT22;40536;53.194;5.728;2023-09-19T01:34:00;13.40;99.90
54642;DHT22;40536;53.194;5.728;2023-09-19T01:36:31;13.40;99.90
54642;DHT22;40536;53.194;5.728;2023-09-19T01:38:59;13.40;99.90
54642;DHT22;40536;53.194;5.728;2023-09-19T01:41:56;13.40;99.90
54642;DHT22;40536;53.194;5.728;2023-09-19T01:44:40;13.40;99.90
54642;DHT22;40536;53.194;5.728;2023-09-19T01:52:36;13.20;99.90
54642;DHT22;40536;53.194;5.728;2023-09-19T01:55:09;13.30;99.90
54642;DHT22;40536;53.194;5.728;2023-09-19T01:57:46;13.30;99.90
54642;DHT22;40536;53.194;5.728;2023-09-19T02:00:15;13.30;99.90
54642;DHT22;40536;53.194;5.728;2023-09-19T02:02:45;13.30;99.90
54642;DHT22;40536;53.194;5.728;2023-09-19T02:05:12;13.30;99.90
54642;DHT22;40536;53.194;5.728;2023-09-19T02:07:38;13.30;99.90
54642;DHT22;40536;53.194;5.728;2023-09-19T02:10:06;13.30;99.90
54642;DHT22;40536;53.194;5.728;2023-09-19T02:12:33;13.30;99.90
54642;DHT22;40536;53.194;5.728;2023-09-19T02:14:59;13.30;99.90
54642;DHT22;40536;53.194;5.728;2023-09-19T02:17:27;13.30;99.90
54642;DHT22;40536;53.194;5.728;2023-09-19T02:19:53;13.40;99.90
54642;DHT22;40536;53.194;5.728;2023-09-19T02:22:20;13.70;99.90
54642;DHT22;40536;53.194;5.728;2023-09-19T02:24:46;13.50;99.90
54642;DHT22;40536;53.194;5.728;2023-09-19T02:27:13;13.50;99.90
54642;DHT22;40536;53.194;5.728;2023-09-19T02:29:41;13.90;99.90
54642;DHT22;40536;53.194;5.728;2023-09-19T02:32:07;13.60;99.90
54642;DHT22;40536;53.194;5.728;2023-09-19T02:34:35;13.60;99.90
54642;DHT22;40536;53.194;5.728;2023-09-19T02:37:03;13.50;99.90
54642;DHT22;40536;53.194;5.728;2023-09-19T02:39:30;13.40;99.90
54642;DHT22;40536;53.194;5.728;2023-09-19T02:41:56;13.30;99.90
54642;DHT22;40536;53.194;5.728;2023-09-19T02:44:22;13.30;99.90
54642;DHT22;40536;53.194;5.728;2023-09-19T02:46:49;13.40;99.90
54642;DHT22;40536;53.194;5.728;2023-09-19T02:49:15;13.20;99.90
54642;DHT22;40536;53.194;5.728;2023-09-19T02:51:40;13.30;99.90
54642;DHT22;40536;53.194;5.728;2023-09-19T02:54:07;13.30;99.90
54642;DHT22;40536;53.194;5.728;2023-09-19T02:56:32;13.30;99.90
54642;DHT22;40536;53.194;5.728;2023-09-19T02:58:58;13.40;99.90
54642;DHT22;40536;53.194;5.728;2023-09-19T03:01:26;13.40;99.90
54642;DHT22;40536;53.194;5.728;2023-09-19T03:03:53;13.30;99.90
54642;DHT22;40536;53.194;5.728;2023-09-19T03:06:19;13.30;99.90
54642;DHT22;40536;53.194;5.728;2023-09-19T03:08:46;13.30;99.90
54642;DHT22;40536;53.194;5.728;2023-09-19T03:11:14;13.30;99.90
54642;DHT22;40536;53.194;5.728;2023-09-19T03:13:41;13.40;99.90
54642;DHT22;40536;53.194;5.728;2023-09-19T03:16:08;13.30;99.90
54642;DHT22;40536;53.194;5.728;2023-09-19T03:18:34;13.40;99.90
54642;DHT22;40536;53.194;5.728;2023-09-19T03:21:00;13.40;99.90
54642;DHT22;40536;53.194;5.728;2023-09-19T03:23:27;13.40;99.90
54642;DHT22;40536;53.194;5.728;2023-09-19T03:25:54;13.50;99.90
54642;DHT22;40536;53.194;5.728;2023-09-19T03:28:20;13.50;99.90
54642;DHT22;40536;53.194;5.728;2023-09-19T03:31:00;13.50;99.90
54642;DHT22;40536;53.194;5.728;2023-09-19T03:33:26;13.50;99.90
54642;DHT22;40536;53.194;5.728;2023-09-19T03:35:55;13.50;99.90
54642;DHT22;40536;53.194;5.728;2023-09-19T03:38:23;13.50;99.90
54642;DHT22;40536;53.194;5.728;2023-09-19T03:40:49;13.50;99.90
54642;DHT22;40536;53.194;5.728;2023-09-19T03:43:15;13.60;99.90
54642;DHT22;40536;53.194;5.728;2023-09-19T03:45:40;13.60;99.90
54642;DHT22;40536;53.194;5.728;2023-09-19T03:48:09;13.50;99.90
54642;DHT22;40536;53.194;5.728;2023-09-19T03:50:35;13.50;99.90
54642;DHT22;40536;53.194;5.728;2023-09-19T03:53:01;13.50;99.90
54642;DHT22;40536;53.194;5.728;2023-09-19T03:55:27;13.50;99.90
54642;DHT22;40536;53.194;5.728;2023-09-19T03:57:53;13.50;99.90
54642;DHT22;40536;53.194;5.728;2023-09-19T04:00:19;13.50;99.90
54642;DHT22;40536;53.194;5.728;2023-09-19T04:02:48;13.50;99.90
54642;DHT22;40536;53.194;5.728;2023-09-19T04:05:14;13.60;99.90
54642;DHT22;40536;53.194;5.728;2023-09-19T04:07:39;13.60;99.90
54642;DHT22;40536;53.194;5.728;2023-09-19T04:10:05;13.70;99.90
54642;DHT22;40536;53.194;5.728;2023-09-19T04:12:34;13.70;99.90
54642;DHT22;40536;53.194;5.728;2023-09-19T04:14:59;13.80;99.90
54642;DHT22;40536;53.194;5.728;2023-09-19T04:17:25;13.70;99.90
54642;DHT22;40536;53.194;5.728;2023-09-19T04:19:51;13.80;99.90
54642;DHT22;40536;53.194;5.728;2023-09-19T04:22:16;13.80;99.90
54642;DHT22;40536;53.194;5.728;2023-09-19T04:24:42;13.80;99.90
54642;DHT22;40536;53.194;5.728;2023-09-19T04:27:08;13.90;99.90
54642;DHT22;40536;53.194;5.728;2023-09-19T04:29:35;13.90;99.90
54642;DHT22;40536;53.194;5.728;2023-09-19T04:32:01;13.90;99.90
54642;DHT22;40536;53.194;5.728;2023-09-19T04:34:26;13.90;99.90
54642;DHT22;40536;53.194;5.728;2023-09-19T04:36:52;13.90;99.90
54642;DHT22;40536;53.194;5.728;2023-09-19T04:39:18;13.90;99.90
54642;DHT22;40536;53.194;5.728;2023-09-19T04:41:44;13.90;99.90
54642;DHT22;40536;53.194;5.728;2023-09-19T04:44:10;14.00;99.90
54642;DHT22;40536;53.194;5.728;2023-09-19T04:46:35;14.00;99.90
54642;DHT22;40536;53.194;5.728;2023-09-19T04:49:01;14.00;99.90
54642;DHT22;40536;53.194;5.728;2023-09-19T04:51:28;14.00;99.90
54642;DHT22;40536;53.194;5.728;2023-09-19T04:53:58;14.00;99.90
54642;DHT22;40536;53.194;5.728;2023-09-19T04:56:24;14.10;99.90
54642;DHT22;40536;53.194;5.728;2023-09-19T04:58:49;14.10;99.90
54642;DHT22;40536;53.194;5.728;2023-09-19T05:01:15;14.10;99.90
54642;DHT22;40536;53.194;5.728;2023-09-19T05:03:41;14.10;99.90
54642;DHT22;40536;53.194;5.728;2023-09-19T05:06:07;14.10;99.90
54642;DHT22;40536;53.194;5.728;2023-09-19T05:08:33;14.10;99.90
54642;DHT22;40536;53.194;5.728;2023-09-19T05:11:02;14.20;99.90
54642;DHT22;40536;53.194;5.728;2023-09-19T05:13:28;14.20;99.90
54642;DHT22;40536;53.194;5.728;2023-09-19T05:15:54;14.20;99.90
54642;DHT22;40536;53.194;5.728;2023-09-19T05:18:19;14.20;99.90
54642;DHT22;40536;53.194;5.728;2023-09-19T05:20:45;14.20;99.90
54642;DHT22;40536;53.194;5.728;2023-09-19T05:23:11;14.20;99.90
54642;DHT22;40536;53.194;5.728;2023-09-19T05:25:39;14.30;99.90
54642;DHT22;40536;53.194;5.728;2023-09-19T05:28:06;14.30;99.90
54642;DHT22;40536;53.194;5.728;2023-09-19T05:30:33;14.20;99.90
54642;DHT22;40536;53.194;5.728;2023-09-19T05:32:59;14.20;99.90
54642;DHT22;40536;53.194;5.728;2023-09-19T05:35:25;14.20;99.90
54642;DHT22;40536;53.194;5.728;2023-09-19T05:37:52;14.10;99.90
54642;DHT22;40536;53.194;5.728;2023-09-19T05:40:18;14.10;99.90
54642;DHT22;40536;53.194;5.728;2023-09-19T05:42:44;14.10;99.90
54642;DHT22;40536;53.194;5.728;2023-09-19T05:45:10;14.10;99.90
54642;DHT22;40536;53.194;5.728;2023-09-19T05:47:41;14.00;99.90
54642;DHT22;40536;53.194;5.728;2023-09-19T05:50:09;14.10;99.90
54642;DHT22;40536;53.194;5.728;2023-09-19T05:52:35;14.10;99.90
54642;DHT22;40536;53.194;5.728;2023-09-19T05:55:04;14.00;99.90
54642;DHT22;40536;53.194;5.728;2023-09-19T05:57:30;14.10;99.90
54642;DHT22;40536;53.194;5.728;2023-09-19T05:59:56;14.20;99.90
54642;DHT22;40536;53.194;5.728;2023-09-19T06:02:22;14.20;99.90
54642;DHT22;40536;53.194;5.728;2023-09-19T06:04:47;14.20;99.90
54642;DHT22;40536;53.194;5.728;2023-09-19T06:07:13;14.30;99.90
54642;DHT22;40536;53.194;5.728;2023-09-19T06:09:39;14.30;99.90
54642;DHT22;40536;53.194;5.728;2023-09-19T06:12:04;14.30;99.90
54642;DHT22;40536;53.194;5.728;2023-09-19T06:14:31;14.40;99.90
54642;DHT22;40536;53.194;5.728;2023-09-19T06:16:57;14.50;99.90
54642;DHT22;40536;53.194;5.728;2023-09-19T06:19:22;14.40;99.90
54642;DHT22;40536;53.194;5.728;2023-09-19T06:21:52;14.50;99.90
54642;DHT22;40536;53.194;5.728;2023-09-19T06:24:19;14.50;99.90
54642;DHT22;40536;53.194;5.728;2023-09-19T06:26:45;14.50;99.90
54642;DHT22;40536;53.194;5.728;2023-09-19T06:29:10;14.70;99.90
54642;DHT22;40536;53.194;5.728;2023-09-19T06:31:39;14.80;99.90
54642;DHT22;40536;53.194;5.728;2023-09-19T06:34:04;14.80;99.90
54642;DHT22;40536;53.194;5.728;2023-09-19T06:36:30;14.90;99.90
54642;DHT22;40536;53.194;5.728;2023-09-19T06:38:55;15.00;99.90
54642;DHT22;40536;53.194;5.728;2023-09-19T06:41:21;15.00;99.90
54642;DHT22;40536;53.194;5.728;2023-09-19T06:43:50;15.00;99.90
54642;DHT22;40536;53.194;5.728;2023-09-19T06:46:19;15.10;99.90
54642;DHT22;40536;53.194;5.728;2023-09-19T06:48:44;15.20;99.90
54642;DHT22;40536;53.194;5.728;2023-09-19T06:51:13;15.20;99.90
54642;DHT22;40536;53.194;5.728;2023-09-19T06:53:41;15.30;99.90
54642;DHT22;40536;53.194;5.728;2023-09-19T06:56:07;15.40;99.90
54642;DHT22;40536;53.194;5.728;2023-09-19T06:58:33;15.40;99.90
54642;DHT22;40536;53.194;5.728;2023-09-19T07:00:58;15.50;99.90
54642;DHT22;40536;53.194;5.728;2023-09-19T07:03:24;15.50;99.90
54642;DHT22;40536;53.194;5.728;2023-09-19T07:05:52;15.60;99.90
54642;DHT22;40536;53.194;5.728;2023-09-19T07:08:18;15.80;99.90
54642;DHT22;40536;53.194;5.728;2023-09-19T07:10:45;15.80;99.90
54642;DHT22;40536;53.194;5.728;2023-09-19T07:13:14;15.90;99.90
54642;DHT22;40536;53.194;5.728;2023-09-19T07:15:43;15.80;99.90
54642;DHT22;40536;53.194;5.728;2023-09-19T07:18:16;15.80;99.90
54642;DHT22;40536;53.194;5.728;2023-09-19T07:20:45;15.80;99.90
54642;DHT22;40536;53.194;5.728;2023-09-19T07:23:18;15.80;99.90
54642;DHT22;40536;53.194;5.728;2023-09-19T07:25:47;15.90;99.90
54642;DHT22;40536;53.194;5.728;2023-09-19T07:28:14;16.20;99.90
54642;DHT22;40536;53.194;5.728;2023-09-19T07:30:40;16.70;99.90
54642;DHT22;40536;53.194;5.728;2023-09-19T07:33:07;17.20;99.90
54642;DHT22;40536;53.194;5.728;2023-09-19T07:35:33;17.90;99.90
54642;DHT22;40536;53.194;5.728;2023-09-19T07:37:59;18.50;99.90
54642;DHT22;40536;53.194;5.728;2023-09-19T07:40:27;18.90;99.90
54642;DHT22;40536;53.194;5.728;2023-09-19T07:42:55;19.30;99.90
54642;DHT22;40536;53.194;5.728;2023-09-19T07:45:20;19.60;99.90
54642;DHT22;40536;53.194;5.728;2023-09-19T07:47:50;19.60;99.90
54642;DHT22;40536;53.194;5.728;2023-09-19T07:50:17;19.80;99.90
54642;DHT22;40536;53.194;5.728;2023-09-19T07:52:47;19.70;99.90
54642;DHT22;40536;53.194;5.728;2023-09-19T07:55:13;19.60;99.90
54642;DHT22;40536;53.194;5.728;2023-09-19T07:57:44;19.50;99.90
54642;DHT22;40536;53.194;5.728;2023-09-19T08:00:11;19.40;99.90
54642;DHT22;40536;53.194;5.728;2023-09-19T08:02:37;19.20;99.90
54642;DHT22;40536;53.194;5.728;2023-09-19T08:05:04;19.20;99.90
54642;DHT22;40536;53.194;5.728;2023-09-19T08:07:36;19.10;99.90
54642;DHT22;40536;53.194;5.728;2023-09-19T08:10:03;19.00;99.90
54642;DHT22;40536;53.194;5.728;2023-09-19T08:12:30;19.20;99.90
54642;DHT22;40536;53.194;5.728;2023-09-19T08:14:55;19.20;99.90
54642;DHT22;40536;53.194;5.728;2023-09-19T08:17:21;19.40;99.90
54642;DHT22;40536;53.194;5.728;2023-09-19T08:19:48;19.40;99.90
54642;DHT22;40536;53.194;5.728;2023-09-19T08:22:19;19.10;99.90
54642;DHT22;40536;53.194;5.728;2023-09-19T08:24:44;18.60;99.90
54642;DHT22;40536;53.194;5.728;2023-09-19T08:27:11;18.40;99.90
54642;DHT22;40536;53.194;5.728;2023-09-19T08:29:38;18.50;99.90
54642;DHT22;40536;53.194;5.728;2023-09-19T08:32:04;18.90;99.90
54642;DHT22;40536;53.194;5.728;2023-09-19T08:34:30;19.10;99.90
54642;DHT22;40536;53.194;5.728;2023-09-19T08:36:58;19.50;99.90
54642;DHT22;40536;53.194;5.728;2023-09-19T08:39:24;19.80;99.90
54642;DHT22;40536;53.194;5.728;2023-09-19T08:41:57;20.20;99.90
54642;DHT22;40536;53.194;5.728;2023-09-19T08:44:24;20.40;99.90
54642;DHT22;40536;53.194;5.728;2023-09-19T08:46:54;20.70;99.90
54642;DHT22;40536;53.194;5.728;2023-09-19T08:49:27;20.70;99.90
54642;DHT22;40536;53.194;5.728;2023-09-19T08:52:12;20.60;99.90
54642;DHT22;40536;53.194;5.728;2023-09-19T08:54:41;20.50;99.90
54642;DHT22;40536;53.194;5.728;2023-09-19T08:57:09;20.30;99.90
54642;DHT22;40536;53.194;5.728;2023-09-19T08:59:41;20.40;99.90
54642;DHT22;40536;53.194;5.728;2023-09-19T09:02:12;20.30;99.90
54642;DHT22;40536;53.194;5.728;2023-09-19T09:04:41;20.40;99.90
54642;DHT22;40536;53.194;5.728;2023-09-19T09:07:12;20.60;99.90
54642;DHT22;40536;53.194;5.728;2023-09-19T09:09:39;20.60;99.90
54642;DHT22;40536;53.194;5.728;2023-09-19T09:12:17;20.30;99.90
54642;DHT22;40536;53.194;5.728;2023-09-19T09:14:46;20.60;99.90
54642;DHT22;40536;53.194;5.728;2023-09-19T09:17:18;20.90;99.90
54642;DHT22;40536;53.194;5.728;2023-09-19T09:19:46;21.20;99.90
54642;DHT22;40536;53.194;5.728;2023-09-19T09:22:13;21.30;99.90
54642;DHT22;40536;53.194;5.728;2023-09-19T09:24:52;21.30;99.90
54642;DHT22;40536;53.194;5.728;2023-09-19T09:27:19;21.40;99.90
54642;DHT22;40536;53.194;5.728;2023-09-19T09:29:49;21.90;99.90
54642;DHT22;40536;53.194;5.728;2023-09-19T09:32:30;21.90;99.90
54642;DHT22;40536;53.194;5.728;2023-09-19T09:35:01;22.00;99.90
54642;DHT22;40536;53.194;5.728;2023-09-19T09:37:27;21.70;99.90
54642;DHT22;40536;53.194;5.728;2023-09-19T09:40:03;22.00;99.90
54642;DHT22;40536;53.194;5.728;2023-09-19T09:42:41;21.90;99.90
54642;DHT22;40536;53.194;5.728;2023-09-19T09:45:20;21.70;99.90
54642;DHT22;40536;53.194;5.728;2023-09-19T09:47:59;21.90;99.90
54642;DHT22;40536;53.194;5.728;2023-09-19T09:50:35;22.10;99.90
54642;DHT22;40536;53.194;5.728;2023-09-19T09:53:29;22.00;99.90
54642;DHT22;40536;53.194;5.728;2023-09-19T09:56:05;21.50;99.90
54642;DHT22;40536;53.194;5.728;2023-09-19T09:58:37;21.10;99.90
54642;DHT22;40536;53.194;5.728;2023-09-19T10:01:06;20.50;99.90
54642;DHT22;40536;53.194;5.728;2023-09-19T10:03:39;20.30;99.90
54642;DHT22;40536;53.194;5.728;2023-09-19T10:06:10;20.20;99.90
54642;DHT22;40536;53.194;5.728;2023-09-19T10:09:08;20.40;99.90
54642;DHT22;40536;53.194;5.728;2023-09-19T10:12:06;20.80;99.90
54642;DHT22;40536;53.194;5.728;2023-09-19T10:14:37;21.00;99.90
54642;DHT22;40536;53.194;5.728;2023-09-19T10:17:05;21.10;99.90
54642;DHT22;40536;53.194;5.728;2023-09-19T10:19:37;21.30;99.90
54642;DHT22;40536;53.194;5.728;2023-09-19T10:22:11;21.00;99.90
54642;DHT22;40536;53.194;5.728;2023-09-19T10:24:38;21.00;99.90
54642;DHT22;40536;53.194;5.728;2023-09-19T10:27:06;21.30;99.90
54642;DHT22;40536;53.194;5.728;2023-09-19T10:29:36;21.30;99.90
54642;DHT22;40536;53.194;5.728;2023-09-19T10:32:06;21.00;99.90
54642;DHT22;40536;53.194;5.728;2023-09-19T10:34:36;20.80;99.90
54642;DHT22;40536;53.194;5.728;2023-09-19T10:37:02;20.60;99.90
54642;DHT22;40536;53.194;5.728;2023-09-19T10:39:32;20.40;99.90
54642;DHT22;40536;53.194;5.728;2023-09-19T10:42:02;20.20;99.90
54642;DHT22;40536;53.194;5.728;2023-09-19T10:44:32;19.90;99.90
54642;DHT22;40536;53.194;5.728;2023-09-19T10:46:58;19.40;99.90
54642;DHT22;40536;53.194;5.728;2023-09-19T10:49:25;19.20;99.90
54642;DHT22;40536;53.194;5.728;2023-09-19T10:51:56;18.80;99.90
54642;DHT22;40536;53.194;5.728;2023-09-19T10:54:27;18.30;99.90
54642;DHT22;40536;53.194;5.728;2023-09-19T10:56:54;18.00;99.90
54642;DHT22;40536;53.194;5.728;2023-09-19T10:59:22;18.10;99.90
54642;DHT22;40536;53.194;5.728;2023-09-19T11:01:54;18.80;99.90
54642;DHT22;40536;53.194;5.728;2023-09-19T11:07:09;19.60;99.90
54642;DHT22;40536;53.194;5.728;2023-09-19T11:09:47;19.50;99.90
54642;DHT22;40536;53.194;5.728;2023-09-19T11:14:55;18.70;99.90
54642;DHT22;40536;53.194;5.728;2023-09-19T11:30:33;18.10;99.90
54642;DHT22;40536;53.194;5.728;2023-09-19T11:33:25;18.10;99.90
54642;DHT22;40536;53.194;5.728;2023-09-19T11:44:31;17.50;99.90
54642;DHT22;40536;53.194;5.728;2023-09-19T11:46:56;17.30;99.90
54642;DHT22;40536;53.194;5.728;2023-09-19T11:49:31;17.20;99.90
54642;DHT22;40536;53.194;5.728;2023-09-19T11:51:59;17.10;99.90
54642;DHT22;40536;53.194;5.728;2023-09-19T11:54:32;17.00;99.90
54642;DHT22;40536;53.194;5.728;2023-09-19T11:56:59;17.00;99.90
54642;DHT22;40536;53.194;5.728;2023-09-19T11:59:27;17.10;99.90
54642;DHT22;40536;53.194;5.728;2023-09-19T12:01:57;17.10;99.90
54642;DHT22;40536;53.194;5.728;2023-09-19T12:04:36;17.30;99.90
54642;DHT22;40536;53.194;5.728;2023-09-19T12:07:14;17.40;99.90
54642;DHT22;40536;53.194;5.728;2023-09-19T12:09:45;17.60;99.90
54642;DHT22;40536;53.194;5.728;2023-09-19T12:12:24;17.80;99.90
54642;DHT22;40536;53.194;5.728;2023-09-19T12:14:53;18.00;99.90
54642;DHT22;40536;53.194;5.728;2023-09-19T12:17:37;18.00;99.90
54642;DHT22;40536;53.194;5.728;2023-09-19T12:20:05;18.20;99.90
54642;DHT22;40536;53.194;5.728;2023-09-19T12:22:45;18.40;99.90
54642;DHT22;40536;53.194;5.728;2023-09-19T12:25:12;18.50;99.90
54642;DHT22;40536;53.194;5.728;2023-09-19T12:27:49;18.50;99.90
54642;DHT22;40536;53.194;5.728;2023-09-19T12:30:18;18.40;99.90
54642;DHT22;40536;53.194;5.728;2023-09-19T12:32:46;18.40;99.90
54642;DHT22;40536;53.194;5.728;2023-09-19T12:35:33;18.20;99.90
54642;DHT22;40536;53.194;5.728;2023-09-19T12:38:04;18.00;99.90
54642;DHT22;40536;53.194;5.728;2023-09-19T12:40:31;17.80;99.90
54642;DHT22;40536;53.194;5.728;2023-09-19T12:42:59;17.60;99.90
54642;DHT22;40536;53.194;5.728;2023-09-19T12:45:28;17.50;99.90
54642;DHT22;40536;53.194;5.728;2023-09-19T12:48:21;17.30;99.90
54642;DHT22;40536;53.194;5.728;2023-09-19T12:51:08;17.10;99.90
54642;DHT22;40536;53.194;5.728;2023-09-19T12:53:37;17.10;99.90
54642;DHT22;40536;53.194;5.728;2023-09-19T12:56:08;17.00;99.90
54642;DHT22;40536;53.194;5.728;2023-09-19T12:58:55;17.00;99.90
54642;DHT22;40536;53.194;5.728;2023-09-19T13:01:25;17.10;99.90
54642;DHT22;40536;53.194;5.728;2023-09-19T13:06:38;17.20;99.90
54642;DHT22;40536;53.194;5.728;2023-09-19T13:09:10;17.30;99.90
54642;DHT22;40536;53.194;5.728;2023-09-19T13:11:39;17.40;99.90
54642;DHT22;40536;53.194;5.728;2023-09-19T13:14:25;17.50;99.90
54642;DHT22;40536;53.194;5.728;2023-09-19T13:17:06;17.60;99.90
54642;DHT22;40536;53.194;5.728;2023-09-19T13:19:51;17.80;99.90
54642;DHT22;40536;53.194;5.728;2023-09-19T13:22:42;17.90;99.90
54642;DHT22;40536;53.194;5.728;2023-09-19T13:25:17;18.00;99.90
54642;DHT22;40536;53.194;5.728;2023-09-19T13:27:56;18.10;99.90
54642;DHT22;40536;53.194;5.728;2023-09-19T13:30:23;18.20;99.90
54642;DHT22;40536;53.194;5.728;2023-09-19T13:33:05;18.30;99.90
54642;DHT22;40536;53.194;5.728;2023-09-19T13:35:32;18.40;99.90
54642;DHT22;40536;53.194;5.728;2023-09-19T13:37:58;18.30;99.90
54642;DHT22;40536;53.194;5.728;2023-09-19T13:40:24;18.20;99.90
54642;DHT22;40536;53.194;5.728;2023-09-19T13:42:53;18.00;99.90
54642;DHT22;40536;53.194;5.728;2023-09-19T13:45:19;17.90;99.90
54642;DHT22;40536;53.194;5.728;2023-09-19T13:47:47;17.80;99.90
54642;DHT22;40536;53.194;5.728;2023-09-19T13:50:13;17.80;99.90
54642;DHT22;40536;53.194;5.728;2023-09-19T13:52:40;17.70;99.90
54642;DHT22;40536;53.194;5.728;2023-09-19T13:55:05;17.80;99.90
54642;DHT22;40536;53.194;5.728;2023-09-19T13:57:32;17.80;99.90
54642;DHT22;40536;53.194;5.728;2023-09-19T13:59:59;17.80;99.90
54642;DHT22;40536;53.194;5.728;2023-09-19T14:02:24;17.70;99.90
54642;DHT22;40536;53.194;5.728;2023-09-19T14:04:51;17.70;99.90
54642;DHT22;40536;53.194;5.728;2023-09-19T14:07:17;17.60;99.90
54642;DHT22;40536;53.194;5.728;2023-09-19T14:09:44;17.50;99.90
54642;DHT22;40536;53.194;5.728;2023-09-19T14:12:09;17.40;99.90
54642;DHT22;40536;53.194;5.728;2023-09-19T14:14:35;17.40;99.90
54642;DHT22;40536;53.194;5.728;2023-09-19T14:17:03;17.30;99.90
54642;DHT22;40536;53.194;5.728;2023-09-19T14:19:29;17.30;99.90
54642;DHT22;40536;53.194;5.728;2023-09-19T14:21:55;17.30;99.90
54642;DHT22;40536;53.194;5.728;2023-09-19T14:24:21;17.30;99.90
54642;DHT22;40536;53.194;5.728;2023-09-19T14:26:47;17.40;99.90
54642;DHT22;40536;53.194;5.728;2023-09-19T14:29:14;17.40;99.90
54642;DHT22;40536;53.194;5.728;2023-09-19T14:31:40;17.50;99.90
54642;DHT22;40536;53.194;5.728;2023-09-19T14:34:07;17.50;99.90
54642;DHT22;40536;53.194;5.728;2023-09-19T14:36:35;17.60;99.90
54642;DHT22;40536;53.194;5.728;2023-09-19T14:39:01;17.60;99.90
54642;DHT22;40536;53.194;5.728;2023-09-19T14:41:27;17.60;99.90
54642;DHT22;40536;53.194;5.728;2023-09-19T14:43:53;17.60;99.90
54642;DHT22;40536;53.194;5.728;2023-09-19T14:46:21;17.70;99.90
54642;DHT22;40536;53.194;5.728;2023-09-19T14:48:46;17.70;99.90
54642;DHT22;40536;53.194;5.728;2023-09-19T14:51:13;17.70;99.90
54642;DHT22;40536;53.194;5.728;2023-09-19T14:53:40;17.80;99.90
54642;DHT22;40536;53.194;5.728;2023-09-19T14:56:08;17.80;99.90
54642;DHT22;40536;53.194;5.728;2023-09-19T14:58:35;17.80;99.90
54642;DHT22;40536;53.194;5.728;2023-09-19T15:01:12;17.80;99.90
54642;DHT22;40536;53.194;5.728;2023-09-19T15:03:39;17.80;99.90
54642;DHT22;40536;53.194;5.728;2023-09-19T15:06:10;17.80;99.90
54642;DHT22;40536;53.194;5.728;2023-09-19T15:08:38;17.80;99.90
54642;DHT22;40536;53.194;5.728;2023-09-19T15:11:09;17.80;99.90
54642;DHT22;40536;53.194;5.728;2023-09-19T15:13:36;17.90;99.90
54642;DHT22;40536;53.194;5.728;2023-09-19T15:16:06;17.90;99.90
54642;DHT22;40536;53.194;5.728;2023-09-19T15:18:36;17.90;99.90
54642;DHT22;40536;53.194;5.728;2023-09-19T15:21:07;17.80;99.90
54642;DHT22;40536;53.194;5.728;2023-09-19T15:23:34;17.80;99.90
54642;DHT22;40536;53.194;5.728;2023-09-19T15:26:03;17.70;99.90
54642;DHT22;40536;53.194;5.728;2023-09-19T15:28:30;17.70;99.90
54642;DHT22;40536;53.194;5.728;2023-09-19T15:33:28;17.60;99.90
54642;DHT22;40536;53.194;5.728;2023-09-19T15:36:08;17.70;99.90
54642;DHT22;40536;53.194;5.728;2023-09-19T15:41:32;17.60;99.90
54642;DHT22;40536;53.194;5.728;2023-09-19T15:44:01;17.60;99.90
54642;DHT22;40536;53.194;5.728;2023-09-19T15:46:31;17.60;99.90
54642;DHT22;40536;53.194;5.728;2023-09-19T15:48:58;17.50;99.90
54642;DHT22;40536;53.194;5.728;2023-09-19T15:51:26;17.50;99.90
54642;DHT22;40536;53.194;5.728;2023-09-19T15:53:53;17.40;99.90
54642;DHT22;40536;53.194;5.728;2023-09-19T15:56:20;17.40;99.90
54642;DHT22;40536;53.194;5.728;2023-09-19T15:58:50;17.30;99.90
54642;DHT22;40536;53.194;5.728;2023-09-19T16:01:16;17.20;99.90
54642;DHT22;40536;53.194;5.728;2023-09-19T16:03:47;17.20;99.90
54642;DHT22;40536;53.194;5.728;2023-09-19T16:06:18;17.10;99.90
54642;DHT22;40536;53.194;5.728;2023-09-19T16:08:46;17.00;99.90
54642;DHT22;40536;53.194;5.728;2023-09-19T16:11:12;17.00;99.90
54642;DHT22;40536;53.194;5.728;2023-09-19T16:13:39;16.90;99.90
54642;DHT22;40536;53.194;5.728;2023-09-19T16:16:07;16.90;99.90
54642;DHT22;40536;53.194;5.728;2023-09-19T16:18:34;16.80;99.90
54642;DHT22;40536;53.194;5.728;2023-09-19T16:21:03;16.80;99.90
54642;DHT22;40536;53.194;5.728;2023-09-19T16:23:29;16.80;99.90
54642;DHT22;40536;53.194;5.728;2023-09-19T16:26:17;16.80;99.90
54642;DHT22;40536;53.194;5.728;2023-09-19T16:28:45;16.70;99.90
54642;DHT22;40536;53.194;5.728;2023-09-19T16:31:10;16.70;99.90
54642;DHT22;40536;53.194;5.728;2023-09-19T16:33:37;16.70;99.90